Metar Cercanos

 

LEPA - Palma De Mallorc, Spain
Distance from station: ONO 38km
Actualización: 01/01/1970 01:00
NOT Current
unable to load LEPA data RC=404 Not Found
unable to load LEPA data RC=404 Not Found
 
LEMH - Mahon/Menorca Is, Spain
Distance from station: ENE 105km
Actualización: 21/05/2018 12:30
Muy nuboso
Muy nuboso
 Viento del NO
Viento: NO 7 km/h
Temperatura: 17°C
Rocío: 14°C
Humedad: 83%
Barómetro: 1011 hPa
Clouds: Muy nuboso
Visibility: 10 km
Cloud details: Few Clouds 610 m
Muy nuboso 1463 m
2018/05/21 10:30 LEMH 211030Z 32004KT 270V350 9999 FEW020 BKN048 17/14 Q1011
 
LEIB - Ibiza/Es Codola, Spain
Distance from station: OSO 165km
Actualización: 21/05/2018 12:30
Parcialmente nuboso
Parcialmente nuboso
 Viento del SSO
Viento: SSO 22 km/h
Temperatura: 20°C
Rocío: 15°C
Humedad: 73%
Barómetro: 1012 hPa
Clouds: Parcialmente nuboso
Visibility: 10 km
Cloud details: Parcialmente nuboso 732 m
2018/05/21 10:30 LEIB 211030Z 21012KT 180V240 9999 SCT024 20/15 Q1012 NOSIG
LEBL - Barcelona Airpor, Spain
Distance from station: NNO 225km
Actualización: 21/05/2018 12:30
Few Clouds
Few Clouds
 Viento del ESE
Viento: ESE 13 km/h
Temperatura: 20°C
Rocío: 13°C
Humedad: 64%
Barómetro: 1012 hPa
Clouds: Few Clouds
Visibility: 10 km
Cloud details: Few Clouds 610 m
2018/05/21 10:30 LEBL 211030Z 12007KT 070V150 9999 FEW020 20/13 Q1012 NOSIG
 
LEVC - Valencia (civ/Mi, Spain
Distance from station: NO 188km
Actualización: 21/05/2018 12:30
Few Clouds
Few Clouds
 Viento del SE
Viento: SE 13 km/h
Temperatura: 24°C
Rocío: 11°C
Humedad: 44%
Barómetro: 1012 hPa
Clouds: Few Clouds
Visibility: 10 km
Cloud details: Few Clouds 1067 m
2018/05/21 10:30 LEVC 211030Z 13007KT 100V170 9999 FEW035TCU 24/11 Q1012 NOSIG
LEGE - Gerona/Costa Bra, Spain
Distance from station: N 276km
Actualización: 21/05/2018 12:30
Few Clouds
Few Clouds
 Viento del ENE
Viento: ENE 7 km/h
Temperatura: 20°C
Rocío: 12°C
Humedad: 60%
Barómetro: 1012 hPa
Clouds: Few Clouds
Visibility: 10 km
Cloud details: Few Clouds 914 m
2018/05/21 10:30 LEGE 211030Z 06004KT 360V170 9999 FEW030 20/12 Q1012
 
LEAL - Alicante/El Alte, Spain
Distance from station: OSO 344km
Actualización: 21/05/2018 12:30
Few Clouds
Few Clouds
 Viento del varies
Viento: varies 9 km/h
Temperatura: 22°C
Rocío: 14°C
Humedad: 61%
Barómetro: 1012 hPa
Clouds: Few Clouds
Visibility: 10 km
Cloud details: Few Clouds 610 m
2018/05/21 10:30 LEAL 211030Z VRB05KT 9999 FEW020 22/14 Q1012 NOSIG
LEAM - Almeria Airport, Spain
Distance from station: SSO 56km
Actualización: 21/05/2018 12:30
Few Clouds
Few Clouds
 Viento del SSO
Viento: SSO 11 km/h
Temperatura: 20°C
Rocío: 16°C
Humedad: 78%
Barómetro: 1013 hPa
Clouds: Few Clouds
Visibility: 10 km
Cloud details: Few Clouds 610 m
Few Clouds 1219 m
2018/05/21 10:30 LEAM 211030Z 20006KT 150V240 9999 FEW020 FEW040TCU 20/16 Q1013
 
LEZG - Zaragoza (mil/Ci, Spain
Distance from station: NO 431km
Actualización: 21/05/2018 12:30
Few Clouds
Few Clouds
 Viento del varies
Viento: varies 9 km/h
Temperatura: 23°C
Rocío: 13°C
Humedad: 53%
Barómetro: 1011 hPa
Clouds: Few Clouds
Visibility: 10 km
Cloud details: Few Clouds 2438 m
2018/05/21 10:30 LEZG 211030Z VRB05KT 9999 FEW080 23/13 Q1011
LEMD - Madrid/Barajas, Spain
Distance from station: ONO 234km
Actualización: 21/05/2018 12:30
Parcialmente nuboso
Parcialmente nuboso
 Viento del S
Viento: S 11 km/h, Racha: 30 km/h
Temperatura: 20°C
Rocío: 11°C
Humedad: 56%
Barómetro: 1013 hPa
Clouds: Parcialmente nuboso
Visibility: 10 km
Cloud details: Few Clouds 1067 m
Parcialmente nuboso 1219 m
2018/05/21 10:30 LEMD 211030Z 18006G16KT 100V260 9999 FEW035 SCT040 20/11 Q1013 NOSIG
 
LEGR - Granada Airport, Spain
Distance from station: OSO 62km
Actualización: 21/05/2018 12:30
Few Clouds
Few Clouds
 Viento del varies
Viento: varies 4 km/h
Temperatura: 20°C
Rocío: 10°C
Humedad: 53%
Barómetro: 1013 hPa
Clouds: Few Clouds
Visibility: 10 km
Cloud details: Few Clouds 1219 m
2018/05/21 10:30 LEGR 211030Z VRB02KT 9999 FEW040TCU 20/10 Q1013
LEMG - Malaga (civ/Mil), Spain
Distance from station: OSO 227km
Actualización: 21/05/2018 12:30
Few Clouds
Few Clouds
 Viento del SSE
Viento: SSE 19 km/h
Temperatura: 21°C
Rocío: 14°C
Humedad: 64%
Barómetro: 1013 hPa
Clouds: Few Clouds
Visibility: 10 km
Cloud details: Few Clouds 2286 m
2018/05/21 10:30 LEMG 211030Z 15010KT 120V190 9999 FEW075 21/14 Q1013 NOSIG
 
LEZL - Sevilla (civ/Mil, Spain
Distance from station: S 318km
Actualización: 21/05/2018 12:30
Few Clouds
Few Clouds
 Viento del OSO
Viento: OSO 4 km/h
Temperatura: 21°C
Rocío: 14°C
Humedad: 64%
Barómetro: 1013 hPa
Clouds: Few Clouds
Visibility: 10 km
Cloud details: Few Clouds 914 m
2018/05/21 10:30 LEZL 211030Z 24002KT 9999 FEW030 21/14 Q1013 NOSIG
LEVT - Vitoria, Spain
Distance from station: NO 226km
Actualización: 21/05/2018 12:30
Few Clouds
Few Clouds
 Viento del O
Viento: O 2 km/h
Temperatura: 21°C
Rocío: 14°C
Humedad: 64%
Barómetro: 1012 hPa
Clouds: Few Clouds
Visibility: 10 km
Cloud details: Few Clouds 1067 m
2018/05/21 10:30 LEVT 211030Z 27001KT 9999 FEW035TCU 21/14 Q1012
 
LEBB - Bilbao/Sondica, Spain
Distance from station: NNO 235km
Actualización: 01/01/1970 01:00
NOT Current
unable to load LEBB data RC=404 Not Found
unable to load LEBB data RC=404 Not Found
 
LESO - San Sebastian/Fu, Spain
Distance from station: N 231km
Actualización: 21/05/2018 12:30
Despejado
Despejado
 Viento del N
Viento: N 7 km/h
Temperatura: 18°C
Rocío: 14°C
Humedad: 78%
Barómetro: 1011 hPa
Resumen: Despejado
Visibility: greater than 10 km
2018/05/21 10:30 LESO 211030Z 36004KT 320V050 CAVOK 18/14 Q1011
 
LEVD - Valladolid(Mil/C, Spain
Distance from station: ONO 239km
Actualización: 21/05/2018 12:30
Few Clouds
Few Clouds
 Viento del SO
Viento: SO 17 km/h
Temperatura: 19°C
Rocío: 7°C
Humedad: 46%
Barómetro: 1013 hPa
Clouds: Few Clouds
Visibility: 10 km
Cloud details: Few Clouds 1219 m
2018/05/21 10:30 LEVD 211030Z 23009KT 190V260 9999 FEW040 19/07 Q1013
LESA - Salamanca (civ/M, Spain
Distance from station: ONO 349km
Actualización: 21/05/2018 12:30
Parcialmente nuboso
Parcialmente nuboso
 Viento del varies
Viento: varies 7 km/h
Temperatura: 20°C
Rocío: 8°C
Humedad: 46%
Barómetro: 1012 hPa
Clouds: Parcialmente nuboso
Visibility: 10 km
Cloud details: Parcialmente nuboso 1280 m
2018/05/21 10:30 LESA 211030Z VRB04KT 9999 SCT042 20/08 Q1012
 
LEXJ - Santander/Paraya, Spain
Distance from station: NNO 247km
Actualización: 21/05/2018 12:30
Few Clouds
Few Clouds
 Viento del NE
Viento: NE 9 km/h
Temperatura: 18°C
Rocío: 14°C
Humedad: 78%
Barómetro: 1011 hPa
Clouds: Few Clouds
Visibility: 10 km
Cloud details: Few Clouds 914 m
2018/05/21 10:30 LEXJ 211030Z 05005KT 360V100 9999 FEW030 18/14 Q1011
LEAS - Asturias/Aviles, Spain
Distance from station: NO 214km
Actualización: 01/01/1970 01:00
NOT Current
unable to load LEAS data RC=404 Not Found
unable to load LEAS data RC=404 Not Found
 
 
LECO - La Coruna/Alvedr, Spain
Distance from station: ONO 222km
Actualización: 21/05/2018 12:30
Few Clouds
Few Clouds
 Viento del NNE
Viento: NNE 9 km/h
Temperatura: 16°C
Rocío: 12°C
Humedad: 77%
Barómetro: 1012 hPa
Clouds: Few Clouds
Visibility: 10 km
Cloud details: Few Clouds 610 m
2018/05/21 10:30 LECO 211030Z 03005KT 320V080 9999 FEW020 16/12 Q1012 NOSIG
LEVX - Vigo/Peinador, Spain
Distance from station: O 214km
Actualización: 21/05/2018 12:30
Despejado
Despejado
 Viento del varies
Viento: varies 11 km/h
Temperatura: 18°C
Rocío: 11°C
Humedad: 64%
Barómetro: 1011 hPa
Resumen: Despejado
Visibility: greater than 10 km
2018/05/21 10:30 LEVX 211030Z VRB06KT CAVOK 18/11 Q1011 NOSIG